Impacts METAR Board
IDs:

KDFW - Dallas-Ft Worth Intl, TX, US

Updated at: 0700 UTC 21 Oct 2018
Potential Impact None Slight Moderate High
Time 20/19Z 20/20Z 20/21Z 20/22Z 20/23Z 21/00Z 21/01Z 21/02Z 21/03Z 21/04Z 21/05Z 21/06Z 21/07Z
Temp69 72 73 72 69 64 61 59 58 58 56 55 53
Dewpt56 54 48 47 47 49 50 50 48 47 48 50 49
Altim30.21 30.20 30.20 30.21 30.22 30.24 30.26 30.28 30.30 30.30 30.32 30.30 30.31
VIS10 10 10 10 10 10 10 10 10 10 10 10 10
CIG250 250 250 250 -- -- 250 -- 250 250 250 -- --
CoverBKNBKNBKNBKNSCTSCTBKNSCTBKNBKNBKNSCTSCT
FltCatVFRVFRVFRVFRVFRVFRVFRVFRVFRVFRVFRVFRVFR
WX--------------------------
WDir201020201036035036020100330330
WSpd14 13 16 14 13 10 8 7 8 8 0 7 5
WGst-- -- 20 -- -- -- -- -- -- -- -- -- --
Raw hourly METARs
KDFW 201853Z 02014KT 10SM FEW020 FEW120 BKN250 21/13 A3021 RMK AO2 SLP224 T02060133
KDFW 201953Z 01013KT 10SM FEW120 BKN250 22/12 A3020 RMK AO2 SLP220 T02220122
KDFW 202053Z 02016G20KT 10SM FEW120 BKN250 23/09 A3020 RMK AO2 SLP221 T02280089 55013
KDFW 202153Z 02014KT 10SM FEW120 BKN250 22/08 A3021 RMK AO2 SLP226 T02220083
KDFW 202253Z 01013KT 10SM FEW140 FEW200 SCT250 21/08 A3022 RMK AO2 SLP228 T02060083
KDFW 202353Z 36010KT 10SM SCT200 SCT250 18/09 A3024 RMK AO2 SLP235 T01780094 10228 20178 53013
KDFW 210053Z 35008KT 10SM FEW200 BKN250 16/10 A3026 RMK AO2 SLP244 T01610100
KDFW 210153Z 36007KT 10SM FEW200 SCT250 15/10 A3028 RMK AO2 SLP251 T01500100
KDFW 210253Z 02008KT 10SM FEW200 BKN250 14/09 A3030 RMK AO2 SLP256 T01440089 51019
KDFW 210353Z 01008KT 10SM FEW200 BKN250 14/08 A3030 RMK AO2 SLP258 T01440083
KDFW 210453Z 00000KT 10SM FEW200 BKN250 13/09 A3032 RMK AO2 SLP263 T01330089
KDFW 210553Z 33007KT 10SM FEW200 SCT250 13/10 A3030 RMK AO2 SLP257 T01280100 10183 20122 402280122 50002
KDFW 210653Z 33005KT 10SM FEW200 SCT250 12/09 A3031 RMK AO2 SLP258 T01170094



Page loaded:  07:37 UTC  |   12:37 AM Pacific  |   01:37 AM Mountain  |   02:37 AM Central  |   03:37 AM Eastern

 

ADVISORIES

FORECASTS

FORECASTS

OBSERVATIONS

USER TOOLS

ABOUT US